French Lick, IN

7:52 AM EDT on November 01, 2014 (GMT -0400)
Louisville International-Standiford | Change Station
CLOSE
Current Station
Airport
Location: Louisville,
Elevation: 489 ft
Nearby Weather Stations
Active Advisory: Freeze Warning

Elev 489 ft 38.17 °N, 85.74 °W | Updated 43 minutes ago

Mostly Cloudy
Mostly Cloudy
36 °F
Feels Like 25 °F
N
20
Wind Variable Wind from NNW
Gusts 30 mph

Today
High -- | Low -- °F
--% Chance of Precip.
Yesterday
High -- | Low -- °F
Precip. -- in
8:13 AM 6:46 PM
Waxing Gibbous, 66% visible
Pressure 30.20 in
Visibility 10.0 miles
Clouds Scattered Clouds 2800 ft
Scattered Clouds 3200 ft
Overcast 5000 ft
Windchill 25 °F
Dew Point 26 °F
Humidity 67%
Rainfall 0.00 in
Snow Depth Not available.
UV 0 out of 12
Pollen .10 out of 12
Air Quality Not available.
Flu Activity Not available.
SPECI KSDF 011109Z 34017G26KT 10SM SCT028 SCT032 OVC050 02/M03 A3020 RMK AO2 PK WND 34026/1109 T00221033 $

More Conditions Fewer Conditions

Pressure 30.20 in
Visibility 10.0 miles
Clouds Scattered Clouds 2800 ft
Scattered Clouds 3200 ft
Overcast 5000 ft
Windchill 25 °F
Dew Point 26 °F
Humidity 67%
Rainfall 0.00 in
Snow Depth Not available.
UV 0 out of 12
Pollen .10 out of 12
Air Quality Not available.
Flu Activity Not available.
SPECI KSDF 011109Z 34017G26KT 10SM SCT028 SCT032 OVC050 02/M03 A3020 RMK AO2 PK WND 34026/1109 T00221033 $

More Conditions Fewer Conditions

10-Day Weather Forecast

Almanac

Astronomy

Nov. 01, 2014 Rise Set
Actual Time
Civil Twilight
Nautical Twilight
Astronomical Twilight
Moon
Length of Visible Light
Length of Day
Tomorrow will be .
, % of the Moon is Illuminated

Today's Extremes

State Highs State Lows

Community

WunderPhotos

Upload Photos

1,766,903 photos uploaded!

WunderBlogs® & News

Nearby

Air Quality

  Air Quality AQ Index Pollutant
Not available.

Snow Depth

Station Depth Elevation

Earthquake Activity

City Distance Mag. Time & Date
Minimum magnitude displayed is 2.5.

Coastal Water Temperatures

Place Temperature

Nearby Weather Stations